sensor_id;sensor_type;location;lat;lon;timestamp;pressure;altitude;pressure_sealevel;temperature;humidity
59757;BME280;45631;51.962;5.974;2023-04-10T00:01:26;101993.22;;;7.97;100.00
59757;BME280;45631;51.962;5.974;2023-04-10T00:03:58;101995.84;;;7.97;100.00
59757;BME280;45631;51.962;5.974;2023-04-10T00:06:27;101995.16;;;7.91;100.00
59757;BME280;45631;51.962;5.974;2023-04-10T00:08:55;101996.22;;;7.86;100.00
59757;BME280;45631;51.962;5.974;2023-04-10T00:11:24;101992.06;;;7.80;100.00
59757;BME280;45631;51.962;5.974;2023-04-10T00:13:53;101999.03;;;7.79;100.00
59757;BME280;45631;51.962;5.974;2023-04-10T00:16:21;102000.81;;;7.79;100.00
59757;BME280;45631;51.962;5.974;2023-04-10T00:18:49;101999.34;;;7.72;100.00
59757;BME280;45631;51.962;5.974;2023-04-10T00:21:17;101992.38;;;7.71;100.00
59757;BME280;45631;51.962;5.974;2023-04-10T00:23:45;101994.19;;;7.69;100.00
59757;BME280;45631;51.962;5.974;2023-04-10T00:26:14;101989.13;;;7.64;100.00
59757;BME280;45631;51.962;5.974;2023-04-10T00:28:43;101971.69;;;7.63;100.00
59757;BME280;45631;51.962;5.974;2023-04-10T00:31:11;101969.06;;;7.63;100.00
59757;BME280;45631;51.962;5.974;2023-04-10T00:33:39;101959.47;;;7.64;100.00
59757;BME280;45631;51.962;5.974;2023-04-10T00:36:07;101957.00;;;7.59;100.00
59757;BME280;45631;51.962;5.974;2023-04-10T00:38:36;101947.53;;;7.55;100.00
59757;BME280;45631;51.962;5.974;2023-04-10T00:41:04;101959.72;;;7.56;100.00
59757;BME280;45631;51.962;5.974;2023-04-10T00:43:33;101955.38;;;7.55;100.00
59757;BME280;45631;51.962;5.974;2023-04-10T00:46:03;101952.84;;;7.53;100.00
59757;BME280;45631;51.962;5.974;2023-04-10T00:48:32;101943.19;;;7.54;100.00
59757;BME280;45631;51.962;5.974;2023-04-10T00:51:01;101935.41;;;7.52;100.00
59757;BME280;45631;51.962;5.974;2023-04-10T00:53:30;101938.31;;;7.44;100.00
59757;BME280;45631;51.962;5.974;2023-04-10T00:56:00;101933.91;;;7.45;100.00
59757;BME280;45631;51.962;5.974;2023-04-10T00:58:28;101929.53;;;7.45;100.00
59757;BME280;45631;51.962;5.974;2023-04-10T01:00:56;101918.22;;;7.45;100.00
59757;BME280;45631;51.962;5.974;2023-04-10T01:03:26;101915.00;;;7.37;100.00
59757;BME280;45631;51.962;5.974;2023-04-10T01:06:03;101913.28;;;7.36;100.00
59757;BME280;45631;51.962;5.974;2023-04-10T01:08:40;101918.34;;;7.42;100.00
59757;BME280;45631;51.962;5.974;2023-04-10T01:11:17;101915.91;;;7.36;100.00
59757;BME280;45631;51.962;5.974;2023-04-10T01:13:55;101916.81;;;7.35;100.00
59757;BME280;45631;51.962;5.974;2023-04-10T01:16:33;101913.28;;;7.36;100.00
59757;BME280;45631;51.962;5.974;2023-04-10T01:19:11;101912.50;;;7.34;100.00
59757;BME280;45631;51.962;5.974;2023-04-10T01:21:41;101914.78;;;7.43;100.00
59757;BME280;45631;51.962;5.974;2023-04-10T01:24:20;101913.03;;;7.43;100.00
59757;BME280;45631;51.962;5.974;2023-04-10T01:27:01;101909.59;;;7.41;100.00
59757;BME280;45631;51.962;5.974;2023-04-10T01:29:39;101912.38;;;7.37;100.00
59757;BME280;45631;51.962;5.974;2023-04-10T01:32:12;101911.81;;;7.28;100.00
59757;BME280;45631;51.962;5.974;2023-04-10T01:34:44;101913.41;;;7.33;100.00
59757;BME280;45631;51.962;5.974;2023-04-10T01:37:16;101904.97;;;7.24;100.00
59757;BME280;45631;51.962;5.974;2023-04-10T01:39:50;101906.56;;;7.28;100.00
59757;BME280;45631;51.962;5.974;2023-04-10T01:42:21;101913.34;;;7.34;100.00
59757;BME280;45631;51.962;5.974;2023-04-10T01:44:52;101915.25;;;7.29;100.00
59757;BME280;45631;51.962;5.974;2023-04-10T01:47:22;101910.41;;;7.18;100.00
59757;BME280;45631;51.962;5.974;2023-04-10T01:49:52;101900.75;;;7.20;100.00
59757;BME280;45631;51.962;5.974;2023-04-10T01:52:22;101905.38;;;7.12;100.00
59757;BME280;45631;51.962;5.974;2023-04-10T01:54:52;101897.66;;;7.09;100.00
59757;BME280;45631;51.962;5.974;2023-04-10T01:57:20;101905.38;;;7.12;100.00
59757;BME280;45631;51.962;5.974;2023-04-10T01:59:49;101900.88;;;7.16;100.00
59757;BME280;45631;51.962;5.974;2023-04-10T02:02:18;101895.03;;;7.09;100.00
59757;BME280;45631;51.962;5.974;2023-04-10T02:04:47;101899.50;;;7.05;100.00
59757;BME280;45631;51.962;5.974;2023-04-10T02:07:23;101892.34;;;7.10;100.00
59757;BME280;45631;51.962;5.974;2023-04-10T02:09:58;101896.22;;;6.99;100.00
59757;BME280;45631;51.962;5.974;2023-04-10T02:12:29;101886.66;;;6.98;100.00
59757;BME280;45631;51.962;5.974;2023-04-10T02:14:59;101892.78;;;6.97;100.00
59757;BME280;45631;51.962;5.974;2023-04-10T02:17:30;101892.13;;;6.91;100.00
59757;BME280;45631;51.962;5.974;2023-04-10T02:20:00;101886.97;;;6.88;100.00
59757;BME280;45631;51.962;5.974;2023-04-10T02:22:29;101884.50;;;6.84;100.00
59757;BME280;45631;51.962;5.974;2023-04-10T02:24:58;101882.75;;;6.84;100.00
59757;BME280;45631;51.962;5.974;2023-04-10T02:27:28;101885.34;;;6.84;100.00
59757;BME280;45631;51.962;5.974;2023-04-10T02:29:57;101877.69;;;6.80;100.00
59757;BME280;45631;51.962;5.974;2023-04-10T02:32:25;101870.66;;;6.82;100.00
59757;BME280;45631;51.962;5.974;2023-04-10T02:34:55;101875.06;;;6.80;100.00
59757;BME280;45631;51.962;5.974;2023-04-10T02:37:23;101869.00;;;6.77;100.00
59757;BME280;45631;51.962;5.974;2023-04-10T02:39:54;101875.91;;;6.80;100.00
59757;BME280;45631;51.962;5.974;2023-04-10T02:42:22;101868.22;;;6.75;100.00
59757;BME280;45631;51.962;5.974;2023-04-10T02:44:50;101868.38;;;6.71;100.00
59757;BME280;45631;51.962;5.974;2023-04-10T02:47:18;101863.25;;;6.68;100.00
59757;BME280;45631;51.962;5.974;2023-04-10T02:49:46;101866.00;;;6.63;100.00
59757;BME280;45631;51.962;5.974;2023-04-10T02:52:16;101865.16;;;6.63;100.00
59757;BME280;45631;51.962;5.974;2023-04-10T02:54:44;101868.69;;;6.62;100.00
59757;BME280;45631;51.962;5.974;2023-04-10T02:57:13;101860.00;;;6.59;100.00
59757;BME280;45631;51.962;5.974;2023-04-10T02:59:44;101858.50;;;6.52;100.00
59757;BME280;45631;51.962;5.974;2023-04-10T03:02:12;101853.28;;;6.52;100.00
59757;BME280;45631;51.962;5.974;2023-04-10T03:04:40;101857.75;;;6.49;100.00
59757;BME280;45631;51.962;5.974;2023-04-10T03:07:08;101853.22;;;6.54;100.00
59757;BME280;45631;51.962;5.974;2023-04-10T03:09:38;101861.31;;;6.46;100.00
59757;BME280;45631;51.962;5.974;2023-04-10T03:12:06;101853.56;;;6.43;100.00
59757;BME280;45631;51.962;5.974;2023-04-10T03:14:34;101856.06;;;6.48;100.00
59757;BME280;45631;51.962;5.974;2023-04-10T03:17:02;101853.47;;;6.46;100.00
59757;BME280;45631;51.962;5.974;2023-04-10T03:19:30;101856.09;;;6.46;100.00
59757;BME280;45631;51.962;5.974;2023-04-10T03:21:58;101857.28;;;6.36;100.00
59757;BME280;45631;51.962;5.974;2023-04-10T03:24:26;101855.56;;;6.35;100.00
59757;BME280;45631;51.962;5.974;2023-04-10T03:26:56;101858.41;;;6.27;100.00
59757;BME280;45631;51.962;5.974;2023-04-10T03:29:24;101861.91;;;6.28;100.00
59757;BME280;45631;51.962;5.974;2023-04-10T03:31:52;101855.97;;;6.22;100.00
59757;BME280;45631;51.962;5.974;2023-04-10T03:34:20;101855.19;;;6.19;100.00
59757;BME280;45631;51.962;5.974;2023-04-10T03:36:48;101859.56;;;6.18;100.00
59757;BME280;45631;51.962;5.974;2023-04-10T03:39:17;101862.28;;;6.15;100.00
59757;BME280;45631;51.962;5.974;2023-04-10T03:41:45;101855.50;;;6.08;100.00
59757;BME280;45631;51.962;5.974;2023-04-10T03:44:17;101857.50;;;6.00;100.00
59757;BME280;45631;51.962;5.974;2023-04-10T03:46:45;101845.34;;;5.99;100.00
59757;BME280;45631;51.962;5.974;2023-04-10T03:49:13;101853.22;;;5.97;100.00
59757;BME280;45631;51.962;5.974;2023-04-10T03:51:42;101838.41;;;5.98;100.00
59757;BME280;45631;51.962;5.974;2023-04-10T03:54:10;101839.28;;;5.97;100.00
59757;BME280;45631;51.962;5.974;2023-04-10T03:56:38;101844.69;;;5.90;100.00
59757;BME280;45631;51.962;5.974;2023-04-10T03:59:06;101836.34;;;5.78;100.00
59757;BME280;45631;51.962;5.974;2023-04-10T04:01:35;101830.16;;;5.82;100.00
59757;BME280;45631;51.962;5.974;2023-04-10T04:04:04;101834.84;;;5.70;100.00
59757;BME280;45631;51.962;5.974;2023-04-10T04:06:32;101827.72;;;5.75;100.00
59757;BME280;45631;51.962;5.974;2023-04-10T04:09:00;101830.38;;;5.74;100.00
59757;BME280;45631;51.962;5.974;2023-04-10T04:11:28;101827.13;;;5.66;100.00
59757;BME280;45631;51.962;5.974;2023-04-10T04:14:00;101822.00;;;5.63;100.00
59757;BME280;45631;51.962;5.974;2023-04-10T04:16:28;101820.91;;;5.70;100.00
59757;BME280;45631;51.962;5.974;2023-04-10T04:18:57;101819.22;;;5.69;100.00
59757;BME280;45631;51.962;5.974;2023-04-10T04:21:25;101824.50;;;5.67;100.00
59757;BME280;45631;51.962;5.974;2023-04-10T04:23:54;101811.69;;;5.58;100.00
59757;BME280;45631;51.962;5.974;2023-04-10T04:26:22;101817.84;;;5.55;100.00
59757;BME280;45631;51.962;5.974;2023-04-10T04:28:50;101813.66;;;5.50;100.00
59757;BME280;45631;51.962;5.974;2023-04-10T04:31:18;101808.50;;;5.48;100.00
59757;BME280;45631;51.962;5.974;2023-04-10T04:33:47;101811.28;;;5.42;100.00
59757;BME280;45631;51.962;5.974;2023-04-10T04:36:16;101812.06;;;5.46;100.00
59757;BME280;45631;51.962;5.974;2023-04-10T04:38:44;101802.56;;;5.43;100.00
59757;BME280;45631;51.962;5.974;2023-04-10T04:41:12;101811.19;;;5.45;100.00
59757;BME280;45631;51.962;5.974;2023-04-10T04:43:43;101807.88;;;5.40;100.00
59757;BME280;45631;51.962;5.974;2023-04-10T04:46:13;101804.63;;;5.32;100.00
59757;BME280;45631;51.962;5.974;2023-04-10T04:48:41;101804.38;;;5.39;100.00
59757;BME280;45631;51.962;5.974;2023-04-10T04:51:11;101813.25;;;5.34;100.00
59757;BME280;45631;51.962;5.974;2023-04-10T04:53:41;101813.44;;;5.26;100.00
59757;BME280;45631;51.962;5.974;2023-04-10T04:56:09;101813.25;;;5.34;100.00
59757;BME280;45631;51.962;5.974;2023-04-10T04:58:37;101814.03;;;5.37;100.00
59757;BME280;45631;51.962;5.974;2023-04-10T05:01:06;101813.16;;;5.37;100.00
59757;BME280;45631;51.962;5.974;2023-04-10T05:03:34;101810.63;;;5.34;100.00
59757;BME280;45631;51.962;5.974;2023-04-10T05:06:03;101799.16;;;5.39;100.00
59757;BME280;45631;51.962;5.974;2023-04-10T05:08:31;101802.72;;;5.37;100.00
59757;BME280;45631;51.962;5.974;2023-04-10T05:11:01;101795.88;;;5.33;100.00
59757;BME280;45631;51.962;5.974;2023-04-10T05:13:29;101799.41;;;5.32;100.00
59757;BME280;45631;51.962;5.974;2023-04-10T05:15:57;101795.88;;;5.33;100.00
59757;BME280;45631;51.962;5.974;2023-04-10T05:18:25;101786.38;;;5.30;100.00
59757;BME280;45631;51.962;5.974;2023-04-10T05:20:53;101783.75;;;5.32;100.00
59757;BME280;45631;51.962;5.974;2023-04-10T05:23:22;101796.00;;;5.28;100.00
59757;BME280;45631;51.962;5.974;2023-04-10T05:25:50;101789.94;;;5.28;100.00
59757;BME280;45631;51.962;5.974;2023-04-10T05:28:22;101784.88;;;5.21;100.00
59757;BME280;45631;51.962;5.974;2023-04-10T05:30:50;101778.53;;;5.30;100.00
59757;BME280;45631;51.962;5.974;2023-04-10T05:33:18;101777.75;;;5.28;100.00
59757;BME280;45631;51.962;5.974;2023-04-10T05:35:46;101776.81;;;5.31;100.00
59757;BME280;45631;51.962;5.974;2023-04-10T05:38:15;101785.63;;;5.27;100.00
59757;BME280;45631;51.962;5.974;2023-04-10T05:40:44;101788.22;;;5.27;100.00
59757;BME280;45631;51.962;5.974;2023-04-10T05:43:12;101790.75;;;5.30;100.00
59757;BME280;45631;51.962;5.974;2023-04-10T05:45:44;101788.03;;;5.33;100.00
59757;BME280;45631;51.962;5.974;2023-04-10T05:48:12;101788.69;;;5.41;100.00
59757;BME280;45631;51.962;5.974;2023-04-10T05:50:40;101781.41;;;5.52;100.00
59757;BME280;45631;51.962;5.974;2023-04-10T05:53:12;101777.31;;;5.73;100.00
59757;BME280;45631;51.962;5.974;2023-04-10T05:55:41;101780.03;;;5.70;100.00
59757;BME280;45631;51.962;5.974;2023-04-10T05:58:09;101781.22;;;5.88;100.00
59757;BME280;45631;51.962;5.974;2023-04-10T06:00:37;101782.94;;;5.89;100.00
59757;BME280;45631;51.962;5.974;2023-04-10T06:03:07;101771.38;;;5.98;100.00
59757;BME280;45631;51.962;5.974;2023-04-10T06:05:35;101777.91;;;6.12;100.00
59757;BME280;45631;51.962;5.974;2023-04-10T06:08:03;101767.13;;;6.22;100.00
59757;BME280;45631;51.962;5.974;2023-04-10T06:10:32;101774.06;;;6.23;100.00
59757;BME280;45631;51.962;5.974;2023-04-10T06:13:00;101769.28;;;6.36;100.00
59757;BME280;45631;51.962;5.974;2023-04-10T06:15:28;101758.38;;;6.50;100.00
59757;BME280;45631;51.962;5.974;2023-04-10T06:17:56;101758.03;;;6.61;100.00
59757;BME280;45631;51.962;5.974;2023-04-10T06:20:26;101761.19;;;6.71;100.00
59757;BME280;45631;51.962;5.974;2023-04-10T06:22:54;101756.69;;;6.74;100.00
59757;BME280;45631;51.962;5.974;2023-04-10T06:25:22;101743.50;;;6.77;100.00
59757;BME280;45631;51.962;5.974;2023-04-10T06:27:52;101744.16;;;6.84;100.00
59757;BME280;45631;51.962;5.974;2023-04-10T06:30:20;101746.97;;;7.03;100.00
59757;BME280;45631;51.962;5.974;2023-04-10T06:32:48;101742.44;;;7.08;100.00
59757;BME280;45631;51.962;5.974;2023-04-10T06:35:17;101738.69;;;7.16;100.00
59757;BME280;45631;51.962;5.974;2023-04-10T06:37:46;101732.78;;;7.34;100.00
59757;BME280;45631;51.962;5.974;2023-04-10T06:40:14;101731.56;;;7.43;100.00
59757;BME280;45631;51.962;5.974;2023-04-10T06:42:42;101732.81;;;7.56;100.00
59757;BME280;45631;51.962;5.974;2023-04-10T06:45:10;101729.84;;;7.66;100.00
59757;BME280;45631;51.962;5.974;2023-04-10T06:47:39;101735.50;;;7.77;100.00
59757;BME280;45631;51.962;5.974;2023-04-10T06:50:07;101731.41;;;7.93;100.00
59757;BME280;45631;51.962;5.974;2023-04-10T06:52:35;101730.22;;;8.01;100.00
59757;BME280;45631;51.962;5.974;2023-04-10T06:55:06;101724.41;;;8.15;100.00
59757;BME280;45631;51.962;5.974;2023-04-10T06:57:34;101719.84;;;8.20;100.00
59757;BME280;45631;51.962;5.974;2023-04-10T07:00:03;101717.38;;;8.37;100.00
59757;BME280;45631;51.962;5.974;2023-04-10T07:02:31;101720.50;;;8.47;100.00
59757;BME280;45631;51.962;5.974;2023-04-10T07:04:59;101716.03;;;8.49;100.00
59757;BME280;45631;51.962;5.974;2023-04-10T07:07:27;101704.25;;;8.59;100.00
59757;BME280;45631;51.962;5.974;2023-04-10T07:09:55;101696.88;;;8.88;100.00
59757;BME280;45631;51.962;5.974;2023-04-10T07:12:25;101698.50;;;8.91;100.00
59757;BME280;45631;51.962;5.974;2023-04-10T07:14:56;101685.97;;;9.17;100.00
59757;BME280;45631;51.962;5.974;2023-04-10T07:17:24;101681.94;;;9.28;100.00
59757;BME280;45631;51.962;5.974;2023-04-10T07:19:53;101677.19;;;9.37;100.00
59757;BME280;45631;51.962;5.974;2023-04-10T07:22:21;101667.31;;;9.42;100.00
59757;BME280;45631;51.962;5.974;2023-04-10T07:24:49;101664.66;;;9.61;100.00
59757;BME280;45631;51.962;5.974;2023-04-10T07:27:18;101662.22;;;9.75;100.00
59757;BME280;45631;51.962;5.974;2023-04-10T07:29:52;101660.31;;;9.79;100.00
59757;BME280;45631;51.962;5.974;2023-04-10T07:32:20;101652.81;;;9.89;100.00
59757;BME280;45631;51.962;5.974;2023-04-10T07:34:49;101646.25;;;9.97;100.00
59757;BME280;45631;51.962;5.974;2023-04-10T07:37:17;101648.59;;;10.04;100.00
59757;BME280;45631;51.962;5.974;2023-04-10T07:39:46;101634.03;;;10.14;100.00
59757;BME280;45631;51.962;5.974;2023-04-10T07:42:14;101633.72;;;10.20;100.00
59757;BME280;45631;51.962;5.974;2023-04-10T07:44:42;101626.97;;;10.32;100.00
59757;BME280;45631;51.962;5.974;2023-04-10T07:47:11;101626.63;;;10.40;100.00
59757;BME280;45631;51.962;5.974;2023-04-10T07:49:39;101616.03;;;10.41;100.00
59757;BME280;45631;51.962;5.974;2023-04-10T07:52:10;101607.22;;;10.42;100.00
59757;BME280;45631;51.962;5.974;2023-04-10T07:54:38;101615.91;;;10.60;100.00
59757;BME280;45631;51.962;5.974;2023-04-10T07:57:06;101609.97;;;10.73;100.00
59757;BME280;45631;51.962;5.974;2023-04-10T07:59:34;101606.94;;;10.80;100.00
59757;BME280;45631;51.962;5.974;2023-04-10T08:02:02;101596.69;;;10.92;98.53
59757;BME280;45631;51.962;5.974;2023-04-10T08:04:32;101600.44;;;11.04;100.00
59757;BME280;45631;51.962;5.974;2023-04-10T08:07:01;101600.16;;;11.08;99.23
59757;BME280;45631;51.962;5.974;2023-04-10T08:09:32;101604.75;;;11.21;96.15
59757;BME280;45631;51.962;5.974;2023-04-10T08:12:00;101600.09;;;11.26;96.61
59757;BME280;45631;51.962;5.974;2023-04-10T08:14:32;101598.66;;;11.36;96.19
59757;BME280;45631;51.962;5.974;2023-04-10T08:17:00;101592.81;;;11.61;94.12
59757;BME280;45631;51.962;5.974;2023-04-10T08:19:28;101591.38;;;11.86;92.11
59757;BME280;45631;51.962;5.974;2023-04-10T08:21:57;101586.69;;;11.91;90.42
59757;BME280;45631;51.962;5.974;2023-04-10T08:24:25;101571.97;;;12.03;91.07
59757;BME280;45631;51.962;5.974;2023-04-10T08:26:54;101580.00;;;12.30;91.49
59757;BME280;45631;51.962;5.974;2023-04-10T08:29:22;101576.25;;;12.34;89.06
59757;BME280;45631;51.962;5.974;2023-04-10T08:31:54;101574.94;;;12.56;90.02
59757;BME280;45631;51.962;5.974;2023-04-10T08:34:26;101581.72;;;12.60;86.40
59757;BME280;45631;51.962;5.974;2023-04-10T08:36:54;101578.41;;;12.71;88.65
59757;BME280;45631;51.962;5.974;2023-04-10T08:39:26;101576.97;;;12.80;83.98
59757;BME280;45631;51.962;5.974;2023-04-10T08:41:54;101572.84;;;12.76;nan
59757;BME280;45631;51.962;5.974;2023-04-10T08:44:23;101573.34;;;12.68;84.54
59757;BME280;45631;51.962;5.974;2023-04-10T08:46:51;101584.78;;;12.81;82.73
59757;BME280;45631;51.962;5.974;2023-04-10T08:49:23;101579.50;;;12.96;82.91
59757;BME280;45631;51.962;5.974;2023-04-10T08:51:55;101579.69;;;12.93;83.53
59757;BME280;45631;51.962;5.974;2023-04-10T08:54:28;101568.28;;;12.92;82.36
59757;BME280;45631;51.962;5.974;2023-04-10T08:56:56;101563.31;;;12.88;81.24
59757;BME280;45631;51.962;5.974;2023-04-10T08:59:30;101561.28;;;13.06;82.10
59757;BME280;45631;51.962;5.974;2023-04-10T09:01:58;101563.13;;;13.18;80.84
59757;BME280;45631;51.962;5.974;2023-04-10T09:04:26;101557.72;;;13.19;80.67
59757;BME280;45631;51.962;5.974;2023-04-10T09:06:55;101559.22;;;13.38;81.11
59757;BME280;45631;51.962;5.974;2023-04-10T09:09:23;101547.81;;;13.38;79.92
59757;BME280;45631;51.962;5.974;2023-04-10T09:12:00;101551.84;;;13.56;80.50
59757;BME280;45631;51.962;5.974;2023-04-10T09:14:30;101549.44;;;13.66;80.78
59757;BME280;45631;51.962;5.974;2023-04-10T09:17:13;101557.09;;;13.71;80.08
59757;BME280;45631;51.962;5.974;2023-04-10T09:19:42;101547.38;;;13.84;78.77
59757;BME280;45631;51.962;5.974;2023-04-10T09:22:10;101548.59;;;13.52;79.79
59757;BME280;45631;51.962;5.974;2023-04-10T09:24:40;101544.59;;;13.73;79.02
59757;BME280;45631;51.962;5.974;2023-04-10T09:27:26;101549.66;;;13.63;79.06
59757;BME280;45631;51.962;5.974;2023-04-10T09:29:54;101538.16;;;13.64;79.47
59757;BME280;45631;51.962;5.974;2023-04-10T09:32:37;101537.72;;;13.70;77.74
59757;BME280;45631;51.962;5.974;2023-04-10T09:35:07;101534.34;;;13.81;77.10
59757;BME280;45631;51.962;5.974;2023-04-10T09:37:36;101526.31;;;13.69;77.77
59757;BME280;45631;51.962;5.974;2023-04-10T09:40:06;101516.69;;;13.94;77.91
59757;BME280;45631;51.962;5.974;2023-04-10T09:42:47;101510.56;;;13.94;78.74
59757;BME280;45631;51.962;5.974;2023-04-10T09:45:15;101514.47;;;14.01;78.58
59757;BME280;45631;51.962;5.974;2023-04-10T09:48:00;101501.06;;;13.91;78.06
59757;BME280;45631;51.962;5.974;2023-04-10T09:50:33;101493.00;;;13.93;78.77
59757;BME280;45631;51.962;5.974;2023-04-10T09:53:05;101486.66;;;13.95;78.63
59757;BME280;45631;51.962;5.974;2023-04-10T09:55:33;101478.84;;;13.94;78.06
59757;BME280;45631;51.962;5.974;2023-04-10T09:58:05;101483.28;;;13.93;79.75
59757;BME280;45631;51.962;5.974;2023-04-10T10:00:38;101472.31;;;13.86;80.46
59757;BME280;45631;51.962;5.974;2023-04-10T10:03:08;101467.00;;;13.99;80.79
59757;BME280;45631;51.962;5.974;2023-04-10T10:05:41;101458.53;;;14.07;81.00
59757;BME280;45631;51.962;5.974;2023-04-10T10:08:11;101464.13;;;14.02;78.99
59757;BME280;45631;51.962;5.974;2023-04-10T10:10:43;101447.94;;;14.07;79.26
59757;BME280;45631;51.962;5.974;2023-04-10T10:13:19;101447.19;;;14.05;79.85
59757;BME280;45631;51.962;5.974;2023-04-10T10:15:55;101444.22;;;14.23;80.38
59757;BME280;45631;51.962;5.974;2023-04-10T10:18:31;101432.50;;;14.14;79.36
59757;BME280;45631;51.962;5.974;2023-04-10T10:21:02;101423.47;;;14.29;79.96
59757;BME280;45631;51.962;5.974;2023-04-10T10:23:35;101418.81;;;14.33;80.23
59757;BME280;45631;51.962;5.974;2023-04-10T10:26:08;101419.47;;;14.48;80.16
59757;BME280;45631;51.962;5.974;2023-04-10T10:28:39;101421.44;;;14.57;81.44
59757;BME280;45631;51.962;5.974;2023-04-10T10:31:09;101419.97;;;14.53;80.60
59757;BME280;45631;51.962;5.974;2023-04-10T10:33:39;101410.97;;;14.56;79.68
59757;BME280;45631;51.962;5.974;2023-04-10T10:36:07;101417.72;;;14.73;79.66
59757;BME280;45631;51.962;5.974;2023-04-10T10:38:40;101409.66;;;14.74;77.80
59757;BME280;45631;51.962;5.974;2023-04-10T10:41:14;101401.72;;;14.74;78.36
59757;BME280;45631;51.962;5.974;2023-04-10T10:43:51;101407.03;;;14.74;78.01
59757;BME280;45631;51.962;5.974;2023-04-10T10:46:25;101395.63;;;14.85;78.54
59757;BME280;45631;51.962;5.974;2023-04-10T10:48:59;101391.06;;;14.87;75.95
59757;BME280;45631;51.962;5.974;2023-04-10T10:51:44;101379.97;;;14.82;76.84
59757;BME280;45631;51.962;5.974;2023-04-10T10:54:30;101384.19;;;14.84;75.61
59757;BME280;45631;51.962;5.974;2023-04-10T10:56:58;101362.56;;;14.91;76.14
59757;BME280;45631;51.962;5.974;2023-04-10T10:59:56;101363.16;;;14.94;74.34
59757;BME280;45631;51.962;5.974;2023-04-10T11:02:24;101359.47;;;15.08;75.04
59757;BME280;45631;51.962;5.974;2023-04-10T11:04:53;101347.94;;;15.20;75.83
59757;BME280;45631;51.962;5.974;2023-04-10T11:10:59;101350.50;;;15.45;74.37
59757;BME280;45631;51.962;5.974;2023-04-10T11:13:28;101347.84;;;15.45;73.82
59757;BME280;45631;51.962;5.974;2023-04-10T11:15:59;101342.19;;;15.49;75.02
59757;BME280;45631;51.962;5.974;2023-04-10T11:19:01;101342.44;;;15.46;74.30
59757;BME280;45631;51.962;5.974;2023-04-10T11:22:03;101325.16;;;15.75;74.64
59757;BME280;45631;51.962;5.974;2023-04-10T11:24:57;101319.03;;;15.74;74.40
59757;BME280;45631;51.962;5.974;2023-04-10T11:27:40;101313.47;;;16.00;73.34
59757;BME280;45631;51.962;5.974;2023-04-10T11:30:29;101314.88;;;16.15;73.92
59757;BME280;45631;51.962;5.974;2023-04-10T11:33:00;101311.75;;;16.21;71.72
59757;BME280;45631;51.962;5.974;2023-04-10T11:35:29;101295.09;;;16.19;72.70
59757;BME280;45631;51.962;5.974;2023-04-10T11:38:11;101296.41;;;16.25;71.40
59757;BME280;45631;51.962;5.974;2023-04-10T11:40:53;101288.47;;;16.46;71.68
59757;BME280;45631;51.962;5.974;2023-04-10T11:43:21;101286.63;;;16.79;69.77
59757;BME280;45631;51.962;5.974;2023-04-10T11:45:50;101271.28;;;17.04;69.93
59757;BME280;45631;51.962;5.974;2023-04-10T11:48:27;101268.06;;;17.00;70.06
59757;BME280;45631;51.962;5.974;2023-04-10T11:50:56;101262.13;;;17.18;70.20
59757;BME280;45631;51.962;5.974;2023-04-10T11:53:27;101261.75;;;17.01;69.10
59757;BME280;45631;51.962;5.974;2023-04-10T11:55:56;101257.91;;;17.15;67.41
59757;BME280;45631;51.962;5.974;2023-04-10T11:58:25;101265.75;;;17.17;66.48
59757;BME280;45631;51.962;5.974;2023-04-10T12:00:58;101258.00;;;17.04;65.93
59757;BME280;45631;51.962;5.974;2023-04-10T12:03:38;101266.13;;;17.12;67.89
59757;BME280;45631;51.962;5.974;2023-04-10T12:06:09;101260.78;;;17.02;66.58
59757;BME280;45631;51.962;5.974;2023-04-10T12:08:38;101243.84;;;16.94;66.82
59757;BME280;45631;51.962;5.974;2023-04-10T12:11:10;101241.78;;;16.86;68.15
59757;BME280;45631;51.962;5.974;2023-04-10T12:13:39;101242.28;;;16.91;67.90
59757;BME280;45631;51.962;5.974;2023-04-10T12:16:08;101235.88;;;16.82;66.86
59757;BME280;45631;51.962;5.974;2023-04-10T12:18:38;101238.44;;;16.84;68.53
59757;BME280;45631;51.962;5.974;2023-04-10T12:21:09;101228.91;;;16.81;69.06
59757;BME280;45631;51.962;5.974;2023-04-10T12:23:38;101229.44;;;16.96;68.66
59757;BME280;45631;51.962;5.974;2023-04-10T12:26:09;101214.66;;;17.03;68.73
59757;BME280;45631;51.962;5.974;2023-04-10T12:28:38;101213.84;;;17.13;66.84
59757;BME280;45631;51.962;5.974;2023-04-10T12:31:07;101215.88;;;16.99;66.37
59757;BME280;45631;51.962;5.974;2023-04-10T12:33:37;101213.75;;;17.24;65.28
59757;BME280;45631;51.962;5.974;2023-04-10T12:36:19;101205.09;;;17.32;66.30
59757;BME280;45631;51.962;5.974;2023-04-10T12:38:47;101207.47;;;17.25;65.00
59757;BME280;45631;51.962;5.974;2023-04-10T12:41:20;101199.88;;;17.20;64.80
59757;BME280;45631;51.962;5.974;2023-04-10T12:43:50;101186.53;;;17.01;65.10
59757;BME280;45631;51.962;5.974;2023-04-10T12:46:24;101189.66;;;17.16;64.70
59757;BME280;45631;51.962;5.974;2023-04-10T12:48:54;101187.88;;;17.26;64.49
59757;BME280;45631;51.962;5.974;2023-04-10T12:51:41;101190.28;;;17.39;62.56
59757;BME280;45631;51.962;5.974;2023-04-10T12:54:09;101174.34;;;17.39;63.43
59757;BME280;45631;51.962;5.974;2023-04-10T12:56:41;101179.63;;;17.29;62.63
59757;BME280;45631;51.962;5.974;2023-04-10T12:59:09;101171.66;;;17.19;62.95
59757;BME280;45631;51.962;5.974;2023-04-10T13:01:38;101168.53;;;17.14;63.81
59757;BME280;45631;51.962;5.974;2023-04-10T13:04:08;101159.31;;;17.09;63.47
59757;BME280;45631;51.962;5.974;2023-04-10T13:06:41;101162.19;;;17.05;64.53
59757;BME280;45631;51.962;5.974;2023-04-10T13:09:11;101143.34;;;17.09;65.52
59757;BME280;45631;51.962;5.974;2023-04-10T13:11:40;101134.06;;;16.93;65.44